sensor_id;sensor_type;location;lat;lon;timestamp;P1;durP1;ratioP1;P2;durP2;ratioP2
12587;SDS011;6359;51.450;7.346;2023-06-04T00:02:19;5.72;;;4.53;;
12587;SDS011;6359;51.450;7.346;2023-06-04T00:04:47;5.00;;;3.83;;
12587;SDS011;6359;51.450;7.346;2023-06-04T00:07:14;4.72;;;4.07;;
12587;SDS011;6359;51.450;7.346;2023-06-04T00:09:42;6.65;;;3.72;;
12587;SDS011;6359;51.450;7.346;2023-06-04T00:12:09;5.88;;;3.67;;
12587;SDS011;6359;51.450;7.346;2023-06-04T00:14:36;5.43;;;3.30;;
12587;SDS011;6359;51.450;7.346;2023-06-04T00:17:03;5.18;;;3.60;;
12587;SDS011;6359;51.450;7.346;2023-06-04T00:19:30;5.43;;;3.50;;
12587;SDS011;6359;51.450;7.346;2023-06-04T00:21:58;3.90;;;2.83;;
12587;SDS011;6359;51.450;7.346;2023-06-04T00:24:25;5.78;;;2.75;;
12587;SDS011;6359;51.450;7.346;2023-06-04T00:26:54;5.18;;;2.80;;
12587;SDS011;6359;51.450;7.346;2023-06-04T00:29:20;3.20;;;2.80;;
12587;SDS011;6359;51.450;7.346;2023-06-04T00:31:47;3.55;;;2.22;;
12587;SDS011;6359;51.450;7.346;2023-06-04T00:34:14;2.95;;;2.53;;
12587;SDS011;6359;51.450;7.346;2023-06-04T00:36:42;3.70;;;2.55;;
12587;SDS011;6359;51.450;7.346;2023-06-04T00:39:09;3.88;;;2.63;;
12587;SDS011;6359;51.450;7.346;2023-06-04T00:41:36;3.10;;;2.50;;
12587;SDS011;6359;51.450;7.346;2023-06-04T00:44:04;3.58;;;2.95;;
12587;SDS011;6359;51.450;7.346;2023-06-04T00:46:31;5.85;;;3.50;;
12587;SDS011;6359;51.450;7.346;2023-06-04T00:49:00;4.30;;;3.20;;
12587;SDS011;6359;51.450;7.346;2023-06-04T00:51:28;5.32;;;3.33;;
12587;SDS011;6359;51.450;7.346;2023-06-04T00:53:56;3.28;;;2.80;;
12587;SDS011;6359;51.450;7.346;2023-06-04T00:56:24;4.53;;;3.15;;
12587;SDS011;6359;51.450;7.346;2023-06-04T00:58:51;6.72;;;3.25;;
12587;SDS011;6359;51.450;7.346;2023-06-04T01:01:22;4.65;;;3.20;;
12587;SDS011;6359;51.450;7.346;2023-06-04T01:03:58;6.05;;;3.42;;
12587;SDS011;6359;51.450;7.346;2023-06-04T01:06:28;4.82;;;3.55;;
12587;SDS011;6359;51.450;7.346;2023-06-04T01:09:02;3.95;;;3.20;;
12587;SDS011;6359;51.450;7.346;2023-06-04T01:11:33;4.53;;;2.95;;
12587;SDS011;6359;51.450;7.346;2023-06-04T01:14:00;5.78;;;2.97;;
12587;SDS011;6359;51.450;7.346;2023-06-04T01:16:30;4.50;;;2.88;;
12587;SDS011;6359;51.450;7.346;2023-06-04T01:19:04;4.85;;;3.53;;
12587;SDS011;6359;51.450;7.346;2023-06-04T01:21:46;4.30;;;3.53;;
12587;SDS011;6359;51.450;7.346;2023-06-04T01:24:16;5.85;;;4.10;;
12587;SDS011;6359;51.450;7.346;2023-06-04T01:26:46;5.30;;;3.40;;
12587;SDS011;6359;51.450;7.346;2023-06-04T01:29:15;5.53;;;3.75;;
12587;SDS011;6359;51.450;7.346;2023-06-04T01:31:44;6.88;;;3.33;;
12587;SDS011;6359;51.450;7.346;2023-06-04T01:34:11;5.63;;;3.60;;
12587;SDS011;6359;51.450;7.346;2023-06-04T01:36:38;6.68;;;3.10;;
12587;SDS011;6359;51.450;7.346;2023-06-04T01:39:05;8.90;;;2.90;;
12587;SDS011;6359;51.450;7.346;2023-06-04T01:41:31;5.57;;;3.88;;
12587;SDS011;6359;51.450;7.346;2023-06-04T01:43:58;5.82;;;4.80;;
12587;SDS011;6359;51.450;7.346;2023-06-04T01:46:25;7.18;;;4.32;;
12587;SDS011;6359;51.450;7.346;2023-06-04T01:48:53;4.63;;;3.28;;
12587;SDS011;6359;51.450;7.346;2023-06-04T01:51:20;5.38;;;2.83;;
12587;SDS011;6359;51.450;7.346;2023-06-04T01:53:47;5.57;;;3.08;;
12587;SDS011;6359;51.450;7.346;2023-06-04T01:56:14;4.82;;;2.80;;
12587;SDS011;6359;51.450;7.346;2023-06-04T01:58:41;4.68;;;3.05;;
12587;SDS011;6359;51.450;7.346;2023-06-04T02:01:08;5.07;;;3.17;;
12587;SDS011;6359;51.450;7.346;2023-06-04T02:03:35;3.00;;;2.35;;
12587;SDS011;6359;51.450;7.346;2023-06-04T02:06:07;3.42;;;2.60;;
12587;SDS011;6359;51.450;7.346;2023-06-04T02:08:34;6.97;;;2.10;;
12587;SDS011;6359;51.450;7.346;2023-06-04T02:11:01;3.13;;;2.20;;
12587;SDS011;6359;51.450;7.346;2023-06-04T02:13:27;2.78;;;2.40;;
12587;SDS011;6359;51.450;7.346;2023-06-04T02:15:54;5.18;;;2.72;;
12587;SDS011;6359;51.450;7.346;2023-06-04T02:18:21;5.22;;;2.85;;
12587;SDS011;6359;51.450;7.346;2023-06-04T02:20:50;2.92;;;2.55;;
12587;SDS011;6359;51.450;7.346;2023-06-04T02:23:19;3.83;;;2.47;;
12587;SDS011;6359;51.450;7.346;2023-06-04T02:25:46;4.28;;;2.90;;
12587;SDS011;6359;51.450;7.346;2023-06-04T02:28:14;3.95;;;2.70;;
12587;SDS011;6359;51.450;7.346;2023-06-04T02:30:41;5.00;;;2.60;;
12587;SDS011;6359;51.450;7.346;2023-06-04T02:33:09;4.93;;;2.70;;
12587;SDS011;6359;51.450;7.346;2023-06-04T02:35:36;6.95;;;2.90;;
12587;SDS011;6359;51.450;7.346;2023-06-04T02:38:03;4.47;;;2.28;;
12587;SDS011;6359;51.450;7.346;2023-06-04T02:40:32;3.20;;;2.50;;
12587;SDS011;6359;51.450;7.346;2023-06-04T02:42:59;2.17;;;1.98;;
12587;SDS011;6359;51.450;7.346;2023-06-04T02:45:26;4.45;;;2.80;;
12587;SDS011;6359;51.450;7.346;2023-06-04T02:47:53;4.18;;;2.50;;
12587;SDS011;6359;51.450;7.346;2023-06-04T02:50:20;4.93;;;2.85;;
12587;SDS011;6359;51.450;7.346;2023-06-04T02:52:47;3.42;;;2.72;;
12587;SDS011;6359;51.450;7.346;2023-06-04T02:55:14;4.18;;;3.10;;
12587;SDS011;6359;51.450;7.346;2023-06-04T02:57:43;3.85;;;2.90;;
12587;SDS011;6359;51.450;7.346;2023-06-04T03:00:10;4.65;;;2.53;;
12587;SDS011;6359;51.450;7.346;2023-06-04T03:02:39;6.28;;;3.03;;
12587;SDS011;6359;51.450;7.346;2023-06-04T03:05:08;8.07;;;2.65;;
12587;SDS011;6359;51.450;7.346;2023-06-04T03:07:37;3.40;;;2.63;;
12587;SDS011;6359;51.450;7.346;2023-06-04T03:10:08;5.80;;;3.75;;
12587;SDS011;6359;51.450;7.346;2023-06-04T03:12:35;7.50;;;2.75;;
12587;SDS011;6359;51.450;7.346;2023-06-04T03:15:04;4.00;;;2.47;;
12587;SDS011;6359;51.450;7.346;2023-06-04T03:17:32;4.22;;;2.50;;
12587;SDS011;6359;51.450;7.346;2023-06-04T03:19:59;2.63;;;2.42;;
12587;SDS011;6359;51.450;7.346;2023-06-04T03:22:25;3.08;;;2.42;;
12587;SDS011;6359;51.450;7.346;2023-06-04T03:24:53;3.60;;;2.80;;
12587;SDS011;6359;51.450;7.346;2023-06-04T03:27:20;3.70;;;2.40;;
12587;SDS011;6359;51.450;7.346;2023-06-04T03:29:47;4.32;;;2.92;;
12587;SDS011;6359;51.450;7.346;2023-06-04T03:32:15;6.05;;;2.65;;
12587;SDS011;6359;51.450;7.346;2023-06-04T03:34:43;3.92;;;2.55;;
12587;SDS011;6359;51.450;7.346;2023-06-04T03:37:10;6.32;;;3.20;;
12587;SDS011;6359;51.450;7.346;2023-06-04T03:39:37;5.60;;;3.10;;
12587;SDS011;6359;51.450;7.346;2023-06-04T03:42:04;5.22;;;2.78;;
12587;SDS011;6359;51.450;7.346;2023-06-04T03:44:31;4.78;;;2.85;;
12587;SDS011;6359;51.450;7.346;2023-06-04T03:46:58;3.30;;;2.70;;
12587;SDS011;6359;51.450;7.346;2023-06-04T03:49:26;3.22;;;2.70;;
12587;SDS011;6359;51.450;7.346;2023-06-04T03:51:53;5.00;;;2.80;;
12587;SDS011;6359;51.450;7.346;2023-06-04T03:54:20;6.70;;;2.53;;
12587;SDS011;6359;51.450;7.346;2023-06-04T03:56:48;6.03;;;2.38;;
12587;SDS011;6359;51.450;7.346;2023-06-04T03:59:14;3.33;;;2.60;;
12587;SDS011;6359;51.450;7.346;2023-06-04T04:01:41;3.20;;;2.72;;
12587;SDS011;6359;51.450;7.346;2023-06-04T04:04:09;3.58;;;2.63;;
12587;SDS011;6359;51.450;7.346;2023-06-04T04:06:37;3.63;;;2.45;;
12587;SDS011;6359;51.450;7.346;2023-06-04T04:09:05;3.97;;;2.28;;
12587;SDS011;6359;51.450;7.346;2023-06-04T04:11:32;4.35;;;2.70;;
12587;SDS011;6359;51.450;7.346;2023-06-04T04:13:59;3.40;;;2.55;;
12587;SDS011;6359;51.450;7.346;2023-06-04T04:16:26;6.40;;;2.75;;
12587;SDS011;6359;51.450;7.346;2023-06-04T04:18:53;3.22;;;2.50;;
12587;SDS011;6359;51.450;7.346;2023-06-04T04:21:20;4.47;;;2.45;;
12587;SDS011;6359;51.450;7.346;2023-06-04T04:23:49;4.53;;;2.33;;
12587;SDS011;6359;51.450;7.346;2023-06-04T04:26:17;3.42;;;2.55;;
12587;SDS011;6359;51.450;7.346;2023-06-04T04:28:44;2.60;;;2.40;;
12587;SDS011;6359;51.450;7.346;2023-06-04T04:31:10;2.80;;;2.22;;
12587;SDS011;6359;51.450;7.346;2023-06-04T04:33:37;6.22;;;2.58;;
12587;SDS011;6359;51.450;7.346;2023-06-04T04:36:05;5.07;;;2.72;;
12587;SDS011;6359;51.450;7.346;2023-06-04T04:38:37;3.50;;;2.60;;
12587;SDS011;6359;51.450;7.346;2023-06-04T04:41:06;2.80;;;2.42;;
12587;SDS011;6359;51.450;7.346;2023-06-04T04:43:34;2.40;;;2.13;;
12587;SDS011;6359;51.450;7.346;2023-06-04T04:46:02;2.40;;;2.20;;
12587;SDS011;6359;51.450;7.346;2023-06-04T04:48:30;4.57;;;2.30;;
12587;SDS011;6359;51.450;7.346;2023-06-04T04:50:57;3.15;;;2.35;;
12587;SDS011;6359;51.450;7.346;2023-06-04T04:53:25;5.85;;;2.58;;
12587;SDS011;6359;51.450;7.346;2023-06-04T04:55:52;6.90;;;2.50;;
12587;SDS011;6359;51.450;7.346;2023-06-04T04:58:20;3.78;;;2.38;;
12587;SDS011;6359;51.450;7.346;2023-06-04T05:00:47;4.57;;;2.70;;
12587;SDS011;6359;51.450;7.346;2023-06-04T05:03:14;3.63;;;2.33;;
12587;SDS011;6359;51.450;7.346;2023-06-04T05:05:41;3.42;;;2.53;;
12587;SDS011;6359;51.450;7.346;2023-06-04T05:08:08;4.97;;;2.65;;
12587;SDS011;6359;51.450;7.346;2023-06-04T05:10:35;4.53;;;3.05;;
12587;SDS011;6359;51.450;7.346;2023-06-04T05:13:02;3.03;;;2.47;;
12587;SDS011;6359;51.450;7.346;2023-06-04T05:15:31;2.65;;;2.45;;
12587;SDS011;6359;51.450;7.346;2023-06-04T05:17:58;7.85;;;2.53;;
12587;SDS011;6359;51.450;7.346;2023-06-04T05:20:27;4.75;;;2.40;;
12587;SDS011;6359;51.450;7.346;2023-06-04T05:22:54;3.58;;;2.38;;
12587;SDS011;6359;51.450;7.346;2023-06-04T05:25:21;3.25;;;2.40;;
12587;SDS011;6359;51.450;7.346;2023-06-04T05:27:48;3.50;;;2.30;;
12587;SDS011;6359;51.450;7.346;2023-06-04T05:30:15;2.28;;;2.00;;
12587;SDS011;6359;51.450;7.346;2023-06-04T05:32:43;3.33;;;2.38;;
12587;SDS011;6359;51.450;7.346;2023-06-04T05:35:10;6.35;;;1.92;;
12587;SDS011;6359;51.450;7.346;2023-06-04T05:37:37;2.15;;;1.90;;
12587;SDS011;6359;51.450;7.346;2023-06-04T05:40:06;3.30;;;2.10;;
12587;SDS011;6359;51.450;7.346;2023-06-04T05:42:34;2.80;;;2.00;;
12587;SDS011;6359;51.450;7.346;2023-06-04T05:45:01;2.60;;;1.92;;
12587;SDS011;6359;51.450;7.346;2023-06-04T05:47:28;4.70;;;2.03;;
12587;SDS011;6359;51.450;7.346;2023-06-04T05:49:57;5.05;;;2.15;;
12587;SDS011;6359;51.450;7.346;2023-06-04T05:52:24;2.38;;;1.75;;
12587;SDS011;6359;51.450;7.346;2023-06-04T05:54:51;4.20;;;1.80;;
12587;SDS011;6359;51.450;7.346;2023-06-04T05:57:18;3.35;;;1.80;;
12587;SDS011;6359;51.450;7.346;2023-06-04T05:59:46;3.60;;;1.85;;
12587;SDS011;6359;51.450;7.346;2023-06-04T06:02:12;2.92;;;1.80;;
12587;SDS011;6359;51.450;7.346;2023-06-04T06:04:39;2.72;;;2.00;;
12587;SDS011;6359;51.450;7.346;2023-06-04T06:07:08;2.63;;;2.05;;
12587;SDS011;6359;51.450;7.346;2023-06-04T06:09:35;2.33;;;1.95;;
12587;SDS011;6359;51.450;7.346;2023-06-04T06:12:02;2.22;;;2.00;;
12587;SDS011;6359;51.450;7.346;2023-06-04T06:14:30;5.30;;;1.75;;
12587;SDS011;6359;51.450;7.346;2023-06-04T06:16:57;2.53;;;2.08;;
12587;SDS011;6359;51.450;7.346;2023-06-04T06:19:24;3.40;;;2.00;;
12587;SDS011;6359;51.450;7.346;2023-06-04T06:21:51;2.20;;;2.00;;
12587;SDS011;6359;51.450;7.346;2023-06-04T06:24:19;2.53;;;1.92;;
12587;SDS011;6359;51.450;7.346;2023-06-04T06:26:46;2.47;;;1.95;;
12587;SDS011;6359;51.450;7.346;2023-06-04T06:29:13;3.22;;;2.00;;
12587;SDS011;6359;51.450;7.346;2023-06-04T06:31:40;2.85;;;1.73;;
12587;SDS011;6359;51.450;7.346;2023-06-04T06:34:07;5.72;;;1.88;;
12587;SDS011;6359;51.450;7.346;2023-06-04T06:36:34;2.33;;;1.50;;
12587;SDS011;6359;51.450;7.346;2023-06-04T06:39:01;2.00;;;1.60;;
12587;SDS011;6359;51.450;7.346;2023-06-04T06:41:29;3.22;;;2.00;;
12587;SDS011;6359;51.450;7.346;2023-06-04T06:43:56;4.68;;;2.10;;
12587;SDS011;6359;51.450;7.346;2023-06-04T06:46:23;3.67;;;1.85;;
12587;SDS011;6359;51.450;7.346;2023-06-04T06:48:50;1.67;;;1.58;;
12587;SDS011;6359;51.450;7.346;2023-06-04T06:51:17;2.40;;;1.90;;
12587;SDS011;6359;51.450;7.346;2023-06-04T06:53:44;2.00;;;1.48;;
12587;SDS011;6359;51.450;7.346;2023-06-04T06:56:11;2.10;;;1.70;;
12587;SDS011;6359;51.450;7.346;2023-06-04T06:58:41;5.65;;;1.67;;
12587;SDS011;6359;51.450;7.346;2023-06-04T07:01:08;3.10;;;1.65;;
12587;SDS011;6359;51.450;7.346;2023-06-04T07:03:35;4.70;;;1.60;;
12587;SDS011;6359;51.450;7.346;2023-06-04T07:06:03;2.05;;;1.70;;
12587;SDS011;6359;51.450;7.346;2023-06-04T07:08:30;4.35;;;1.65;;
12587;SDS011;6359;51.450;7.346;2023-06-04T07:10:57;3.95;;;1.50;;
12587;SDS011;6359;51.450;7.346;2023-06-04T07:13:24;1.83;;;1.35;;
12587;SDS011;6359;51.450;7.346;2023-06-04T07:15:52;4.75;;;2.00;;
12587;SDS011;6359;51.450;7.346;2023-06-04T07:18:19;2.72;;;1.52;;
12587;SDS011;6359;51.450;7.346;2023-06-04T07:20:46;4.25;;;1.67;;
12587;SDS011;6359;51.450;7.346;2023-06-04T07:23:14;4.45;;;1.60;;
12587;SDS011;6359;51.450;7.346;2023-06-04T07:25:41;2.47;;;1.80;;
12587;SDS011;6359;51.450;7.346;2023-06-04T07:28:07;2.47;;;1.45;;
12587;SDS011;6359;51.450;7.346;2023-06-04T07:30:34;1.58;;;1.25;;
12587;SDS011;6359;51.450;7.346;2023-06-04T07:33:03;2.05;;;1.52;;
12587;SDS011;6359;51.450;7.346;2023-06-04T07:35:31;2.38;;;1.60;;
12587;SDS011;6359;51.450;7.346;2023-06-04T07:37:58;4.00;;;2.03;;
12587;SDS011;6359;51.450;7.346;2023-06-04T07:40:25;3.47;;;1.58;;
12587;SDS011;6359;51.450;7.346;2023-06-04T07:42:52;4.53;;;1.77;;
12587;SDS011;6359;51.450;7.346;2023-06-04T07:45:19;3.65;;;1.50;;
12587;SDS011;6359;51.450;7.346;2023-06-04T07:47:46;1.80;;;1.58;;
12587;SDS011;6359;51.450;7.346;2023-06-04T07:50:14;5.07;;;1.60;;
12587;SDS011;6359;51.450;7.346;2023-06-04T07:52:41;2.42;;;1.48;;
12587;SDS011;6359;51.450;7.346;2023-06-04T07:55:08;1.95;;;1.60;;
12587;SDS011;6359;51.450;7.346;2023-06-04T07:57:35;2.55;;;1.42;;
12587;SDS011;6359;51.450;7.346;2023-06-04T08:00:02;4.85;;;1.75;;
12587;SDS011;6359;51.450;7.346;2023-06-04T08:02:30;1.92;;;1.60;;
12587;SDS011;6359;51.450;7.346;2023-06-04T08:04:57;4.72;;;1.55;;
12587;SDS011;6359;51.450;7.346;2023-06-04T08:07:25;3.55;;;1.80;;
12587;SDS011;6359;51.450;7.346;2023-06-04T08:09:52;2.90;;;1.75;;
12587;SDS011;6359;51.450;7.346;2023-06-04T08:12:20;3.80;;;1.55;;
12587;SDS011;6359;51.450;7.346;2023-06-04T08:14:47;3.28;;;1.70;;
12587;SDS011;6359;51.450;7.346;2023-06-04T08:17:15;2.45;;;1.48;;
12587;SDS011;6359;51.450;7.346;2023-06-04T08:19:42;2.17;;;1.60;;
12587;SDS011;6359;51.450;7.346;2023-06-04T08:22:09;3.72;;;2.47;;
12587;SDS011;6359;51.450;7.346;2023-06-04T08:24:38;5.63;;;2.00;;
12587;SDS011;6359;51.450;7.346;2023-06-04T08:27:05;3.85;;;1.80;;
12587;SDS011;6359;51.450;7.346;2023-06-04T08:29:33;5.00;;;2.00;;
12587;SDS011;6359;51.450;7.346;2023-06-04T08:32:00;2.25;;;1.85;;
12587;SDS011;6359;51.450;7.346;2023-06-04T08:34:27;3.00;;;1.90;;
12587;SDS011;6359;51.450;7.346;2023-06-04T08:36:54;2.65;;;1.80;;
12587;SDS011;6359;51.450;7.346;2023-06-04T08:39:22;2.85;;;1.55;;
12587;SDS011;6359;51.450;7.346;2023-06-04T08:41:51;4.03;;;2.10;;
12587;SDS011;6359;51.450;7.346;2023-06-04T08:44:19;2.22;;;1.95;;
12587;SDS011;6359;51.450;7.346;2023-06-04T08:46:47;2.38;;;1.40;;
12587;SDS011;6359;51.450;7.346;2023-06-04T08:49:17;4.30;;;2.40;;
12587;SDS011;6359;51.450;7.346;2023-06-04T08:51:47;2.83;;;2.03;;
12587;SDS011;6359;51.450;7.346;2023-06-04T08:54:14;4.97;;;2.13;;
12587;SDS011;6359;51.450;7.346;2023-06-04T08:56:41;3.15;;;1.90;;
12587;SDS011;6359;51.450;7.346;2023-06-04T08:59:10;2.38;;;1.83;;
12587;SDS011;6359;51.450;7.346;2023-06-04T09:01:38;5.43;;;2.72;;
12587;SDS011;6359;51.450;7.346;2023-06-04T09:04:10;6.00;;;2.35;;
12587;SDS011;6359;51.450;7.346;2023-06-04T09:06:37;4.07;;;2.65;;
12587;SDS011;6359;51.450;7.346;2023-06-04T09:09:07;3.67;;;2.40;;
12587;SDS011;6359;51.450;7.346;2023-06-04T09:11:36;3.75;;;2.17;;
12587;SDS011;6359;51.450;7.346;2023-06-04T09:14:07;2.40;;;2.15;;
12587;SDS011;6359;51.450;7.346;2023-06-04T09:16:43;5.32;;;2.70;;
12587;SDS011;6359;51.450;7.346;2023-06-04T09:19:11;4.93;;;2.30;;
12587;SDS011;6359;51.450;7.346;2023-06-04T09:21:48;4.45;;;2.33;;
12587;SDS011;6359;51.450;7.346;2023-06-04T09:24:15;4.07;;;2.55;;
12587;SDS011;6359;51.450;7.346;2023-06-04T09:26:42;4.28;;;2.30;;
12587;SDS011;6359;51.450;7.346;2023-06-04T09:29:10;2.78;;;2.35;;
12587;SDS011;6359;51.450;7.346;2023-06-04T09:31:37;3.08;;;2.28;;
12587;SDS011;6359;51.450;7.346;2023-06-04T09:34:06;4.30;;;2.40;;
12587;SDS011;6359;51.450;7.346;2023-06-04T09:36:33;5.65;;;2.30;;
12587;SDS011;6359;51.450;7.346;2023-06-04T09:39:01;5.82;;;4.03;;
12587;SDS011;6359;51.450;7.346;2023-06-04T09:41:29;4.57;;;2.88;;
12587;SDS011;6359;51.450;7.346;2023-06-04T09:43:59;5.63;;;2.45;;
12587;SDS011;6359;51.450;7.346;2023-06-04T09:46:29;3.22;;;2.17;;
12587;SDS011;6359;51.450;7.346;2023-06-04T09:49:00;3.33;;;1.80;;
12587;SDS011;6359;51.450;7.346;2023-06-04T09:51:29;4.18;;;1.40;;
12587;SDS011;6359;51.450;7.346;2023-06-04T09:53:57;6.80;;;1.90;;
12587;SDS011;6359;51.450;7.346;2023-06-04T09:56:25;5.47;;;2.00;;
12587;SDS011;6359;51.450;7.346;2023-06-04T09:58:53;4.25;;;2.10;;
12587;SDS011;6359;51.450;7.346;2023-06-04T10:01:22;5.90;;;3.38;;
12587;SDS011;6359;51.450;7.346;2023-06-04T10:03:50;5.78;;;2.15;;
12587;SDS011;6359;51.450;7.346;2023-06-04T10:06:18;4.68;;;2.17;;
12587;SDS011;6359;51.450;7.346;2023-06-04T10:08:48;3.17;;;2.20;;
12587;SDS011;6359;51.450;7.346;2023-06-04T10:11:17;2.78;;;1.60;;
12587;SDS011;6359;51.450;7.346;2023-06-04T10:13:53;7.75;;;3.05;;
12587;SDS011;6359;51.450;7.346;2023-06-04T10:16:21;3.63;;;1.83;;
12587;SDS011;6359;51.450;7.346;2023-06-04T10:18:52;3.92;;;1.45;;
12587;SDS011;6359;51.450;7.346;2023-06-04T10:21:20;1.55;;;1.40;;
12587;SDS011;6359;51.450;7.346;2023-06-04T10:23:50;3.50;;;1.90;;
12587;SDS011;6359;51.450;7.346;2023-06-04T10:26:17;6.63;;;1.88;;
12587;SDS011;6359;51.450;7.346;2023-06-04T10:28:44;4.63;;;2.22;;
12587;SDS011;6359;51.450;7.346;2023-06-04T10:31:11;4.13;;;2.00;;
12587;SDS011;6359;51.450;7.346;2023-06-04T10:33:38;3.03;;;1.65;;
12587;SDS011;6359;51.450;7.346;2023-06-04T10:36:15;3.55;;;1.92;;
12587;SDS011;6359;51.450;7.346;2023-06-04T10:38:47;3.45;;;2.50;;
12587;SDS011;6359;51.450;7.346;2023-06-04T10:41:16;3.08;;;2.03;;
12587;SDS011;6359;51.450;7.346;2023-06-04T10:43:44;3.33;;;1.73;;
12587;SDS011;6359;51.450;7.346;2023-06-04T10:46:11;3.60;;;2.03;;
12587;SDS011;6359;51.450;7.346;2023-06-04T10:48:48;2.45;;;2.03;;
12587;SDS011;6359;51.450;7.346;2023-06-04T10:51:28;5.55;;;2.72;;
12587;SDS011;6359;51.450;7.346;2023-06-04T10:53:55;2.70;;;1.90;;
12587;SDS011;6359;51.450;7.346;2023-06-04T10:56:27;3.95;;;1.80;;
12587;SDS011;6359;51.450;7.346;2023-06-04T10:58:54;7.53;;;6.35;;
12587;SDS011;6359;51.450;7.346;2023-06-04T11:01:24;3.28;;;1.75;;
12587;SDS011;6359;51.450;7.346;2023-06-04T11:03:53;3.05;;;2.03;;
12587;SDS011;6359;51.450;7.346;2023-06-04T11:06:20;4.05;;;3.33;;
12587;SDS011;6359;51.450;7.346;2023-06-04T11:08:49;3.10;;;1.90;;
12587;SDS011;6359;51.450;7.346;2023-06-04T11:11:16;5.20;;;1.83;;
12587;SDS011;6359;51.450;7.346;2023-06-04T11:13:44;4.93;;;1.95;;
12587;SDS011;6359;51.450;7.346;2023-06-04T11:16:14;2.25;;;1.92;;
12587;SDS011;6359;51.450;7.346;2023-06-04T11:18:42;3.58;;;1.80;;
12587;SDS011;6359;51.450;7.346;2023-06-04T11:21:10;3.05;;;1.70;;
12587;SDS011;6359;51.450;7.346;2023-06-04T11:23:39;2.22;;;1.75;;
12587;SDS011;6359;51.450;7.346;2023-06-04T11:26:07;4.47;;;1.75;;
12587;SDS011;6359;51.450;7.346;2023-06-04T11:28:34;2.22;;;1.92;;
12587;SDS011;6359;51.450;7.346;2023-06-04T11:31:02;2.53;;;1.55;;
12587;SDS011;6359;51.450;7.346;2023-06-04T11:33:30;4.10;;;1.80;;
12587;SDS011;6359;51.450;7.346;2023-06-04T11:36:07;5.95;;;3.03;;
12587;SDS011;6359;51.450;7.346;2023-06-04T11:38:34;5.30;;;1.63;;
12587;SDS011;6359;51.450;7.346;2023-06-04T11:41:01;3.88;;;2.03;;
12587;SDS011;6359;51.450;7.346;2023-06-04T11:43:30;3.67;;;1.27;;
12587;SDS011;6359;51.450;7.346;2023-06-04T11:46:00;4.90;;;1.52;;
12587;SDS011;6359;51.450;7.346;2023-06-04T11:48:34;3.28;;;1.58;;
12587;SDS011;6359;51.450;7.346;2023-06-04T11:51:04;3.85;;;1.63;;
12587;SDS011;6359;51.450;7.346;2023-06-04T11:53:34;6.80;;;1.90;;
12587;SDS011;6359;51.450;7.346;2023-06-04T11:56:02;5.30;;;1.55;;
12587;SDS011;6359;51.450;7.346;2023-06-04T11:58:30;3.80;;;1.83;;
12587;SDS011;6359;51.450;7.346;2023-06-04T12:00:58;3.92;;;1.75;;
12587;SDS011;6359;51.450;7.346;2023-06-04T12:03:36;3.20;;;1.85;;
12587;SDS011;6359;51.450;7.346;2023-06-04T12:06:11;3.83;;;2.78;;
12587;SDS011;6359;51.450;7.346;2023-06-04T12:08:47;4.72;;;1.73;;
12587;SDS011;6359;51.450;7.346;2023-06-04T12:11:25;3.13;;;1.75;;
12587;SDS011;6359;51.450;7.346;2023-06-04T12:13:53;2.05;;;1.50;;
12587;SDS011;6359;51.450;7.346;2023-06-04T12:16:21;4.00;;;2.00;;
12587;SDS011;6359;51.450;7.346;2023-06-04T12:18:49;3.50;;;1.60;;
12587;SDS011;6359;51.450;7.346;2023-06-04T12:21:17;2.20;;;1.40;;
12587;SDS011;6359;51.450;7.346;2023-06-04T12:23:47;2.10;;;1.50;;
12587;SDS011;6359;51.450;7.346;2023-06-04T12:26:21;9.70;;;1.70;;
12587;SDS011;6359;51.450;7.346;2023-06-04T12:28:59;2.45;;;1.55;;
12587;SDS011;6359;51.450;7.346;2023-06-04T12:31:26;4.72;;;1.83;;
12587;SDS011;6359;51.450;7.346;2023-06-04T12:33:58;1.92;;;1.60;;
12587;SDS011;6359;51.450;7.346;2023-06-04T12:36:26;1.30;;;1.20;;
12587;SDS011;6359;51.450;7.346;2023-06-04T12:38:59;4.43;;;1.50;;
12587;SDS011;6359;51.450;7.346;2023-06-04T12:41:26;3.03;;;1.75;;
12587;SDS011;6359;51.450;7.346;2023-06-04T12:43:54;2.92;;;1.73;;
12587;SDS011;6359;51.450;7.346;2023-06-04T12:46:21;1.35;;;1.25;;
12587;SDS011;6359;51.450;7.346;2023-06-04T12:48:48;4.40;;;1.70;;
12587;SDS011;6359;51.450;7.346;2023-06-04T12:51:17;3.38;;;1.40;;
12587;SDS011;6359;51.450;7.346;2023-06-04T12:53:45;3.75;;;1.48;;
12587;SDS011;6359;51.450;7.346;2023-06-04T12:56:12;2.72;;;1.63;;
12587;SDS011;6359;51.450;7.346;2023-06-04T12:58:39;2.70;;;1.88;;
12587;SDS011;6359;51.450;7.346;2023-06-04T13:01:06;1.65;;;1.55;;
12587;SDS011;6359;51.450;7.346;2023-06-04T13:03:35;3.92;;;1.92;;
12587;SDS011;6359;51.450;7.346;2023-06-04T13:06:03;2.97;;;1.48;;
12587;SDS011;6359;51.450;7.346;2023-06-04T13:08:32;2.88;;;1.65;;
12587;SDS011;6359;51.450;7.346;2023-06-04T13:10:59;5.20;;;2.72;;
12587;SDS011;6359;51.450;7.346;2023-06-04T13:13:26;3.17;;;1.48;;
12587;SDS011;6359;51.450;7.346;2023-06-04T13:15:53;5.47;;;2.00;;
12587;SDS011;6359;51.450;7.346;2023-06-04T13:18:21;4.60;;;1.67;;
12587;SDS011;6359;51.450;7.346;2023-06-04T13:20:47;4.38;;;1.70;;
12587;SDS011;6359;51.450;7.346;2023-06-04T13:23:15;1.48;;;1.38;;
12587;SDS011;6359;51.450;7.346;2023-06-04T13:25:43;1.65;;;1.52;;
12587;SDS011;6359;51.450;7.346;2023-06-04T13:28:10;2.30;;;1.90;;
12587;SDS011;6359;51.450;7.346;2023-06-04T13:30:37;3.63;;;1.38;;
12587;SDS011;6359;51.450;7.346;2023-06-04T13:33:04;3.50;;;1.83;;
12587;SDS011;6359;51.450;7.346;2023-06-04T13:35:31;4.32;;;1.80;;
12587;SDS011;6359;51.450;7.346;2023-06-04T13:37:58;7.03;;;1.33;;
12587;SDS011;6359;51.450;7.346;2023-06-04T13:40:25;1.40;;;1.30;;
12587;SDS011;6359;51.450;7.346;2023-06-04T13:42:53;2.70;;;1.58;;
12587;SDS011;6359;51.450;7.346;2023-06-04T13:45:20;1.77;;;1.50;;
12587;SDS011;6359;51.450;7.346;2023-06-04T13:47:47;2.33;;;1.55;;
12587;SDS011;6359;51.450;7.346;2023-06-04T13:50:14;4.78;;;1.50;;
12587;SDS011;6359;51.450;7.346;2023-06-04T13:52:41;5.57;;;1.58;;
12587;SDS011;6359;51.450;7.346;2023-06-04T13:55:08;1.90;;;1.30;;
12587;SDS011;6359;51.450;7.346;2023-06-04T13:57:35;3.22;;;1.30;;
12587;SDS011;6359;51.450;7.346;2023-06-04T14:00:04;1.40;;;1.30;;
12587;SDS011;6359;51.450;7.346;2023-06-04T14:02:32;2.50;;;1.55;;
12587;SDS011;6359;51.450;7.346;2023-06-04T14:04:59;3.85;;;1.55;;
12587;SDS011;6359;51.450;7.346;2023-06-04T14:07:26;6.20;;;2.28;;
12587;SDS011;6359;51.450;7.346;2023-06-04T14:09:53;4.38;;;1.63;;
12587;SDS011;6359;51.450;7.346;2023-06-04T14:12:20;2.45;;;1.52;;
12587;SDS011;6359;51.450;7.346;2023-06-04T14:14:47;1.80;;;1.23;;
12587;SDS011;6359;51.450;7.346;2023-06-04T14:17:16;3.10;;;1.70;;
12587;SDS011;6359;51.450;7.346;2023-06-04T14:19:43;2.20;;;1.40;;
12587;SDS011;6359;51.450;7.346;2023-06-04T14:22:10;2.13;;;1.60;;
12587;SDS011;6359;51.450;7.346;2023-06-04T14:24:37;2.00;;;1.80;;
12587;SDS011;6359;51.450;7.346;2023-06-04T14:27:06;1.90;;;1.52;;
12587;SDS011;6359;51.450;7.346;2023-06-04T14:29:34;1.90;;;1.10;;
12587;SDS011;6359;51.450;7.346;2023-06-04T14:32:01;1.50;;;1.40;;
12587;SDS011;6359;51.450;7.346;2023-06-04T14:34:29;2.75;;;1.63;;
12587;SDS011;6359;51.450;7.346;2023-06-04T14:36:57;3.30;;;1.55;;
12587;SDS011;6359;51.450;7.346;2023-06-04T14:39:24;3.05;;;1.85;;
12587;SDS011;6359;51.450;7.346;2023-06-04T14:41:51;5.43;;;4.03;;
12587;SDS011;6359;51.450;7.346;2023-06-04T14:44:18;4.07;;;1.95;;
12587;SDS011;6359;51.450;7.346;2023-06-04T14:46:46;4.00;;;2.00;;
12587;SDS011;6359;51.450;7.346;2023-06-04T14:49:14;6.50;;;2.10;;
12587;SDS011;6359;51.450;7.346;2023-06-04T14:51:42;3.20;;;1.80;;
12587;SDS011;6359;51.450;7.346;2023-06-04T14:54:09;3.55;;;1.50;;
12587;SDS011;6359;51.450;7.346;2023-06-04T14:56:36;5.20;;;1.63;;
12587;SDS011;6359;51.450;7.346;2023-06-04T14:59:04;1.80;;;1.40;;
12587;SDS011;6359;51.450;7.346;2023-06-04T15:01:34;2.80;;;1.67;;
12587;SDS011;6359;51.450;7.346;2023-06-04T15:04:01;2.30;;;1.98;;
12587;SDS011;6359;51.450;7.346;2023-06-04T15:06:28;2.38;;;1.63;;